Data for 04/16/2016

Time Sea-Level Adjusted Pressure Absolute Pressure Temperature Relative Humidity Dew Point   
(mb) (inHg) (mb) (inHg) (C) (F) (%) (C) (F)
00:05 1025 30.27 855 25.25 -0.5 31.2 84 -2.9 26.8
00:10 1025 30.27 855 25.25 -0.4 31.2 83 -2.9 26.7
00:15 1025 30.27 855 25.25 -0.5 31.1 84 -3 26.7
00:20 1025 30.27 855 25.25 -0.6 31 84 -3 26.6
00:25 1025 30.27 855 25.25 -0.5 31.1 83 -3 26.6
00:30 1025 30.27 855 25.25 -0.5 31.1 84 -3 26.6
00:35 1025 30.27 855 25.25 -0.5 31.1 84 -2.9 26.8
00:40 1026 30.3 855 25.25 -0.5 31.1 83 -3 26.7
00:45 1025 30.27 855 25.25 -0.5 31.1 83 -3 26.6
00:50 1026 30.3 855 25.25 -0.6 31 83 -3.1 26.5
00:55 1025 30.27 855 25.25 -0.6 30.9 84 -3.1 26.5
01:00 1026 30.3 855 25.25 -0.5 31 83 -3.1 26.4
01:05 1026 30.3 855 25.25 -0.6 31 82 -3.2 26.2
01:10 1026 30.3 855 25.25 -0.6 30.9 82 -3.3 26.1
01:15 1026 30.3 855 25.25 -0.6 30.8 82 -3.3 26.1
01:20 1026 30.3 855 25.25 -0.7 30.8 83 -3.3 26.1
01:25 1026 30.3 855 25.25 -0.7 30.7 83 -3.3 26.1
01:30 1026 30.3 855 25.25 -0.7 30.7 82 -3.4 25.8
01:35 1025 30.27 855 25.25 -0.7 30.7 82 -3.4 25.9
01:40 1025 30.27 855 25.25 -0.7 30.7 82 -3.4 25.8
01:45 1026 30.3 855 25.25 -0.7 30.8 81 -3.5 25.8
01:50 1026 30.3 855 25.25 -0.7 30.8 81 -3.5 25.6
01:55 1026 30.3 855 25.25 -0.7 30.7 81 -3.5 25.6
02:00 1026 30.3 855 25.25 -0.8 30.5 82 -3.6 25.6
02:05 1026 30.3 855 25.25 -0.8 30.5 81 -3.7 25.4
02:10 1025 30.27 855 25.25 -0.9 30.4 82 -3.6 25.5
02:15 1026 30.3 855 25.25 -0.9 30.4 82 -3.6 25.4
02:20 1026 30.3 855 25.25 -0.9 30.3 81 -3.7 25.3
02:25 1025 30.27 855 25.25 -1 30.2 82 -3.7 25.3
02:30 1026 30.3 855 25.25 -1 30.1 82 -3.8 25.2
02:35 1026 30.3 855 25.25 -1.1 30 82 -3.8 25.1
02:40 1026 30.3 855 25.25 -1.1 29.9 82 -3.8 25.1
02:45 1026 30.3 855 25.25 -1.2 29.8 82 -3.9 25
02:50 1026 30.3 855 25.25 -1.3 29.6 83 -3.9 24.9
02:55 1026 30.3 855 25.25 -1.4 29.5 83 -4 24.8
03:00 1026 30.3 855 25.25 -1.5 29.4 83 -4 24.7
03:05 1026 30.3 855 25.25 -1.5 29.2 83 -4.1 24.6
03:10 1026 30.3 855 25.25 -1.6 29.1 83 -4.1 24.6
03:15 1026 30.3 855 25.25 -1.6 29.1 83 -4.2 24.5
03:20 1026 30.3 855 25.25 -1.6 29.1 83 -4.2 24.4
03:25 1026 30.3 855 25.25 -1.7 29 83 -4.3 24.3
03:30 1026 30.3 855 25.25 -1.8 28.8 83 -4.3 24.3
03:35 1026 30.3 855 25.25 -1.8 28.7 83 -4.3 24.2
03:40 1026 30.3 855 25.25 -1.8 28.7 83 -4.3 24.2
03:45 1026 30.3 855 25.25 -1.8 28.7 83 -4.4 24.1
03:50 1026 30.3 855 25.25 -1.8 28.7 82 -4.4 24
03:55 1026 30.3 855 25.25 -1.8 28.7 82 -4.4 24
04:00 1026 30.3 855 25.25 -1.9 28.6 82 -4.5 23.9
04:05 1026 30.3 855 25.25 -2 28.5 83 -4.5 23.8
04:10 1026 30.3 855 25.25 -2 28.4 83 -4.6 23.8
04:15 1026 30.3 855 25.25 -2.1 28.2 83 -4.6 23.7
04:20 1026 30.3 855 25.25 -2.2 28 83 -4.7 23.6
04:25 1026 30.3 855 25.25 -2.2 28 83 -4.7 23.6
04:30 1026 30.3 855 25.25 -2.2 28 83 -4.7 23.6
04:35 1026 30.3 855 25.25 -2.2 28 83 -4.7 23.6
04:40 1026 30.3 855 25.25 -2.2 28 83 -4.7 23.5
04:45 1026 30.3 855 25.25 -2.3 27.8 83 -4.8 23.4
04:50 1026 30.3 855 25.25 -2.3 27.8 83 -4.8 23.4
04:55 1026 30.3 855 25.25 -2.4 27.8 83 -4.8 23.3
05:00 1026 30.3 856 25.28 -2.4 27.7 83 -4.8 23.3
05:05 1026 30.3 856 25.28 -2.4 27.7 83 -4.8 23.3
05:10 1026 30.3 856 25.28 -2.5 27.6 84 -4.8 23.3
05:15 1027 30.33 856 25.28 -2.5 27.5 85 -4.8 23.4
05:20 1027 30.33 856 25.28 -2.6 27.3 85 -4.8 23.4
05:25 1027 30.33 856 25.28 -2.7 27.1 86 -4.8 23.4
05:30 1027 30.33 856 25.28 -2.8 27 86 -4.8 23.3
05:35 1027 30.33 856 25.28 -2.8 27 86 -4.7 23.5
05:40 1027 30.33 856 25.28 -2.7 27.1 86 -4.8 23.4
05:45 1027 30.33 856 25.28 -2.7 27.2 85 -4.9 23.3
05:50 1027 30.33 856 25.28 -2.3 27.8 83 -4.8 23.3
05:55 1027 30.33 856 25.28 -2.2 28.1 83 -4.7 23.5
06:00 1027 30.33 856 25.28 -2.2 28.1 82 -4.8 23.3
06:05 1027 30.33 856 25.28 -2.1 28.2 82 -4.8 23.4
06:10 1027 30.33 856 25.28 -1.9 28.6 81 -4.7 23.6
06:15 1027 30.33 856 25.28 -1.2 29.8 78 -4.6 23.7
06:20 1027 30.33 856 25.28 -0.7 30.7 76 -4.4 24.1
06:25 1027 30.33 856 25.28 -0.3 31.5 74 -4.5 24
06:30 1027 30.33 856 25.28 -0.1 31.8 74 -4.3 24.3
06:35 1027 30.33 856 25.28 -0 31.9 74 -4.1 24.6
06:40 1027 30.33 856 25.28 -0.1 31.8 74 -4.3 24.3
06:45 1027 30.33 856 25.28 -0.3 31.5 76 -4.1 24.6
06:50 1027 30.33 856 25.28 0.1 32.1 73 -4.3 24.3
06:55 1027 30.33 856 25.28 0.3 32.6 72 -4.1 24.6
07:00 1027 30.33 856 25.28 0.1 32.2 75 -3.9 25.1
07:05 1027 30.33 856 25.28 -0.2 31.7 75 -4.1 24.6
07:10 1027 30.33 856 25.28 0.2 32.3 73 -4.2 24.5
07:15 1027 30.33 856 25.28 0.8 33.4 71 -3.9 25
07:20 1027 30.33 856 25.28 0.9 33.6 71 -3.8 25.1
07:25 1027 30.33 856 25.28 0.9 33.6 69 -4.2 24.5
07:30 1027 30.33 857 25.31 1 33.8 71 -3.7 25.3
07:35 1027 30.33 857 25.31 1.6 34.9 66 -4 24.8
07:40 1027 30.33 856 25.28 1.7 35 67 -3.8 25.1
07:45 1027 30.33 856 25.28 1.2 34.2 72 -3.3 26
07:50 1027 30.33 857 25.31 1.6 34.9 67 -3.9 25
07:55 1027 30.33 857 25.31 2.1 35.8 64 -3.9 25
08:00 1027 30.33 857 25.31 2.2 35.9 66 -3.4 25.8
08:05 1027 30.33 857 25.31 1.6 34.8 68 -3.6 25.5
08:10 1027 30.33 857 25.31 1.5 34.8 66 -4.1 24.5
08:15 1027 30.33 857 25.31 2 35.5 66 -3.8 25.2
08:20 1027 30.33 857 25.31 2 35.7 64 -4.1 24.6
08:25 1027 30.33 857 25.31 2.8 37.1 61 -4 24.8
08:30 1027 30.33 857 25.31 3.4 38.1 58 -4 24.8
08:35 1027 30.33 857 25.31 3.6 38.5 57 -4.1 24.6
08:40 1027 30.33 857 25.31 3.9 39 57 -3.9 25
08:45 1028 30.36 857 25.31 4 39.2 53 -4.7 23.6
08:50 1027 30.33 857 25.31 4.1 39.4 52 -5 23
08:55 1027 30.33 857 25.31 3.5 38.3 55 -4.6 23.7
09:00 1027 30.33 857 25.31 3.4 38.2 54 -5 23.1
09:05 1028 30.36 857 25.31 4.1 39.5 52 -4.9 23.2
09:10 1028 30.36 857 25.31 4.6 40.3 50 -4.8 23.4
09:15 1027 30.33 857 25.31 4 39.1 54 -4.5 24
09:20 1027 30.33 857 25.31 4.1 39.4 51 -5 22.9
09:25 1028 30.36 857 25.31 4.9 40.7 50 -4.7 23.5
09:30 1028 30.36 857 25.31 4.5 40.1 51 -4.7 23.6
09:35 1028 30.36 857 25.31 4.7 40.4 49 -5.1 22.8
09:40 1027 30.33 857 25.31 5.1 41.2 48 -5.1 22.8
09:45 1028 30.36 857 25.31 4.9 40.8 50 -4.7 23.6
09:50 1028 30.36 857 25.31 4.8 40.6 50 -4.7 23.5
09:55 1028 30.36 857 25.31 5.4 41.6 49 -4.5 24
10:00 1028 30.36 857 25.31 3.9 39 51 -5.3 22.5
10:05 1028 30.36 857 25.31 5 41 48 -5.1 22.8
10:10 1028 30.36 857 25.31 5.8 42.4 45 -5.2 22.7
10:15 1028 30.36 857 25.31 5.9 42.6 45 -5.2 22.6
10:20 1028 30.36 857 25.31 6.1 42.9 44 -5.2 22.6
10:25 1028 30.36 857 25.31 5.7 42.2 44 -5.5 22.1
10:30 1028 30.36 857 25.31 5.8 42.5 45 -5.3 22.5
10:35 1028 30.36 857 25.31 6 42.8 43 -5.6 21.9
10:40 1028 30.36 857 25.31 6.5 43.7 40 -6 21.1
10:45 1028 30.36 857 25.31 6.6 43.9 42 -5.5 22.2
10:50 1028 30.36 857 25.31 6.6 44 42 -5.3 22.5
10:55 1028 30.36 857 25.31 6.5 43.6 44 -5 23
11:00 1028 30.36 857 25.31 6.6 43.9 44 -4.8 23.4
11:05 1028 30.36 857 25.31 6.3 43.3 43 -5.5 22
11:10 1028 30.36 857 25.31 6.4 43.6 44 -4.9 23.3
11:15 1028 30.36 857 25.31 6.7 44 42 -5.3 22.5
11:20 1028 30.36 857 25.31 6.8 44.2 47 -3.9 25
11:25 1028 30.36 857 25.31 5.8 42.4 49 -4 24.7
11:30 1028 30.36 857 25.31 6 42.8 44 -5.4 22.3
11:35 1028 30.36 857 25.31 6.8 44.2 42 -5.1 22.8
11:40 1028 30.36 857 25.31 7.3 45.1 40 -5.5 22.1
11:45 1028 30.36 857 25.31 7.3 45.2 38 -6.1 21.1
11:50 1028 30.36 857 25.31 6.7 44 40 -5.9 21.3
11:55 1028 30.36 857 25.31 7.6 45.6 39 -5.5 22.2
12:00 1028 30.36 857 25.31 7.4 45.4 39 -5.5 22.1
12:05 1028 30.36 857 25.31 8.2 46.7 37 -5.7 21.7
12:10 1028 30.36 857 25.31 8.9 48 38 -4.7 23.6
12:15 1028 30.36 857 25.31 8 46.3 41 -4.3 24.2
12:20 1028 30.36 857 25.31 7.8 46.1 39 -5.2 22.7
12:25 1028 30.36 857 25.31 8.3 47 37 -5.6 21.9
12:30 1028 30.36 857 25.31 9.4 49 34 -5.6 21.8
12:35 1028 30.36 857 25.31 8.9 48.1 37 -4.9 23.2
12:40 1028 30.36 857 25.31 9 48.1 35 -5.7 21.8
12:45 1028 30.36 857 25.31 9 48.2 35 -5.8 21.5
12:50 1027 30.33 857 25.31 9.1 48.4 35 -5.4 22.3
12:55 1027 30.33 857 25.31 8.5 47.4 38 -5 23
13:00 1027 30.33 857 25.31 9.1 48.5 37 -4.6 23.7
13:05 1027 30.33 857 25.31 8 46.5 40 -4.7 23.5
13:10 1027 30.33 857 25.31 8.1 46.6 37 -5.9 21.5
13:15 1027 30.33 857 25.31 8.6 47.4 36 -5.7 21.7
13:20 1027 30.33 857 25.31 8.4 47.2 35 -6 21.2
13:25 1027 30.33 857 25.31 7.4 45.4 38 -6 21.3
13:30 1027 30.33 857 25.31 8.5 47.4 36 -5.8 21.5
13:35 1028 30.36 857 25.31 8.9 48 36 -5.5 22.1
13:40 1028 30.36 857 25.31 9 48.2 34 -5.8 21.5
13:45 1028 30.36 857 25.31 9.7 49.4 34 -5.5 22.2
13:50 1027 30.33 857 25.31 9.7 49.4 34 -5.3 22.5
13:55 1028 30.36 857 25.31 8.9 47.9 34 -6.1 21.1
14:00 1028 30.36 857 25.31 8.9 48.1 32 -6.7 19.9
14:05 1027 30.33 857 25.31 9.6 49.3 33 -6 21.2
14:10 1027 30.33 857 25.31 9.9 49.7 32 -6 21.3
14:15 1027 30.33 857 25.31 9.6 49.3 32 -6.4 20.4
14:20 1027 30.33 857 25.31 9.6 49.2 32 -6.4 20.5
14:25 1027 30.33 857 25.31 9.1 48.3 31 -7 19.5
14:30 1027 30.33 857 25.31 9.3 48.8 32 -6.5 20.2
14:35 1027 30.33 857 25.31 10 50 30 -6.7 20
14:40 1027 30.33 857 25.31 10.3 50.6 29 -6.9 19.5
14:45 1027 30.33 857 25.31 10.7 51.2 29 -6.6 20.1
14:50 1027 30.33 857 25.31 10.5 50.9 29 -6.6 20.1
14:55 1028 30.36 857 25.31 10.7 51.3 28 -6.8 19.7
15:00 1027 30.33 857 25.31 10.8 51.4 30 -6.2 20.8
15:05 1027 30.33 857 25.31 9.9 49.8 31 -6.4 20.6
15:10 1027 30.33 857 25.31 9.7 49.4 31 -6.6 20
15:15 1027 30.33 857 25.31 9.5 49.1 29 -7.4 18.7
15:20 1027 30.33 857 25.31 10.2 50.3 28 -7.3 18.8
15:25 1027 30.33 857 25.31 9.4 48.9 30 -7.5 18.5
15:30 1027 30.33 857 25.31 9 48.2 29 -8.1 17.3
15:35 1027 30.33 857 25.31 10 50 27 -8.2 17.3
15:40 1027 30.33 857 25.31 9.8 49.7 28 -7.8 17.9
15:45 1027 30.33 857 25.31 10.5 50.9 29 -6.7 20
15:50 1027 30.33 857 25.31 9.7 49.5 28 -7.8 18
15:55 1027 30.33 857 25.31 9.9 49.8 26 -8.7 16.4
16:00 1027 30.33 857 25.31 10.2 50.4 27 -8 17.6
16:05 1027 30.33 857 25.31 10.3 50.5 27 -7.7 18.2
16:10 1028 30.36 857 25.31 10.3 50.5 27 -8.1 17.4
16:15 1027 30.33 857 25.31 10.2 50.3 28 -7.5 18.6
16:20 1027 30.33 857 25.31 9.6 49.2 27 -8.5 16.7
16:25 1027 30.33 857 25.31 10 50 27 -8.3 17
16:30 1027 30.33 857 25.31 10 49.9 26 -8.5 16.7
16:35 1027 30.33 857 25.31 10.1 50.2 27 -8.1 17.3
16:40 1027 30.33 857 25.31 10.3 50.6 25 -8.9 16
16:45 1027 30.33 857 25.31 10.4 50.8 25 -8.6 16.5
16:50 1027 30.33 857 25.31 10 50 24 -9.4 15
16:55 1027 30.33 857 25.31 10.2 50.4 24 -9.5 14.9
17:00 1027 30.33 857 25.31 10.2 50.4 24 -9.4 15
17:05 1027 30.33 857 25.31 10.1 50.2 24 -9.5 14.9
17:10 1027 30.33 857 25.31 10.5 50.9 23 -9.7 14.5
17:15 1027 30.33 857 25.31 10.6 51.2 23 -9.7 14.6
17:20 1028 30.36 857 25.31 10.5 50.8 24 -9.4 15.1
17:25 1028 30.36 857 25.31 10.6 51.2 24 -8.9 16
17:30 1028 30.36 857 25.31 10.7 51.2 24 -9.3 15.3
17:35 1028 30.36 857 25.31 10.3 50.5 25 -8.8 16.1
17:40 1028 30.36 857 25.31 9.8 49.6 25 -9.3 15.3
17:45 1028 30.36 857 25.31 9.5 49.1 26 -9 15.8
17:50 1028 30.36 857 25.31 9.4 49 25 -9.7 14.6
17:55 1028 30.36 857 25.31 9.5 49 25 -9.4 15
18:00 1028 30.36 857 25.31 9.6 49.2 26 -8.9 15.9
18:05 1028 30.36 857 25.31 9.5 49 27 -8.7 16.3
18:10 1028 30.36 857 25.31 9.5 49 26 -8.9 16
18:15 1028 30.36 857 25.31 9.5 49.1 25 -9.6 14.8
18:20 1028 30.36 857 25.31 9.3 48.8 25 -9.6 14.7
18:25 1028 30.36 857 25.31 9.1 48.4 25 -9.8 14.4
18:30 1028 30.36 857 25.31 9 48.3 26 -9.7 14.6
18:35 1028 30.36 857 25.31 9 48.2 26 -9.5 14.8
18:40 1028 30.36 857 25.31 8.8 47.9 27 -9.3 15.3
18:45 1028 30.36 857 25.31 8.8 47.8 27 -9 15.8
18:50 1028 30.36 857 25.31 8.6 47.5 29 -8.6 16.5
18:55 1028 30.36 857 25.31 8.4 47.1 30 -8.2 17.2
19:00 1028 30.36 857 25.31 8.3 46.9 30 -8.2 17.2
19:05 1028 30.36 857 25.31 8.2 46.8 31 -8.1 17.5
19:10 1028 30.36 857 25.31 8.2 46.7 31 -8 17.6
19:15 1028 30.36 857 25.31 8.1 46.5 31 -7.9 17.9
19:20 1028 30.36 857 25.31 8 46.3 32 -7.7 18.2
19:25 1028 30.36 857 25.31 7.8 46.1 33 -7.5 18.5
19:30 1028 30.36 857 25.31 7.7 45.8 33 -7.4 18.7
19:35 1028 30.36 857 25.31 7.6 45.6 34 -7.3 18.9
19:40 1028 30.36 857 25.31 7.5 45.4 34 -7.4 18.7
19:45 1028 30.36 857 25.31 7.4 45.2 34 -7.4 18.7
19:50 1028 30.36 857 25.31 6.7 44.1 47 -3.8 25.1
19:55 1028 30.36 857 25.31 5.2 41.4 52 -3.7 25.3
20:00 1028 30.36 858 25.34 4.8 40.6 53 -3.9 24.9
20:05 1028 30.36 858 25.34 4.6 40.3 54 -3.8 25.2
20:10 1028 30.36 858 25.34 4.5 40.1 54 -4.1 24.7
20:15 1029 30.39 858 25.34 4.5 40.1 53 -4.3 24.3
20:20 1029 30.39 858 25.34 4.4 39.8 56 -3.6 25.5
20:25 1029 30.39 858 25.34 4 39.3 59 -3.2 26.2
20:30 1029 30.39 858 25.34 3.7 38.6 61 -3.2 26.3
20:35 1029 30.39 858 25.34 3.4 38.2 62 -3.2 26.2
20:40 1029 30.39 858 25.34 3.3 38 62 -3.2 26.2
20:45 1029 30.39 858 25.34 3.2 37.8 63 -3.1 26.3
20:50 1029 30.39 858 25.34 3.2 37.8 63 -3.3 26.1
20:55 1029 30.39 858 25.34 3.1 37.6 64 -3.1 26.4
21:00 1029 30.39 858 25.34 2.8 37.1 65 -3.1 26.4
21:05 1029 30.39 858 25.34 2.5 36.6 66 -3.2 26.3
21:10 1029 30.39 858 25.34 2.3 36.1 66 -3.4 25.9
21:15 1029 30.39 858 25.34 2.2 35.9 64 -3.9 24.9
21:20 1029 30.39 858 25.34 2.4 36.3 62 -4.3 24.3
21:25 1029 30.39 858 25.34 2.5 36.5 62 -4 24.9
21:30 1029 30.39 858 25.34 2.6 36.6 61 -4.2 24.5
21:35 1029 30.39 858 25.34 2.8 37 59 -4.5 23.9
21:40 1029 30.39 858 25.34 3 37.3 60 -4.1 24.5
21:45 1029 30.39 858 25.34 2.7 36.8 62 -4 24.8
21:50 1029 30.39 858 25.34 2.6 36.7 62 -4 24.8
21:55 1029 30.39 858 25.34 2.6 36.6 63 -3.7 25.4
22:00 1029 30.39 858 25.34 2.4 36.4 64 -3.7 25.4
22:05 1029 30.39 859 25.37 2.4 36.3 65 -3.6 25.5
22:10 1029 30.39 859 25.37 2.2 35.9 66 -3.5 25.7
22:15 1029 30.39 859 25.37 1.4 34.6 69 -3.7 25.4
22:20 1029 30.39 859 25.37 1.3 34.4 69 -3.8 25.1
22:25 1030 30.42 859 25.37 1.6 34.9 66 -4 24.8
22:30 1030 30.42 859 25.37 1.7 35.1 66 -3.9 25
22:35 1030 30.42 859 25.37 1.7 35 68 -3.6 25.6
22:40 1030 30.42 859 25.37 1.3 34.4 70 -3.6 25.5
22:45 1030 30.42 859 25.37 1.3 34.3 67 -4.1 24.6
22:50 1030 30.42 859 25.37 1.7 35.1 65 -4.1 24.6
22:55 1030 30.42 859 25.37 1.8 35.3 65 -4 24.9
23:00 1030 30.42 859 25.37 1.8 35.3 65 -4.1 24.5
23:05 1030 30.42 859 25.37 2 35.6 66 -3.7 25.4
23:10 1030 30.42 859 25.37 1.6 34.9 66 -4.1 24.6
23:15 1030 30.42 859 25.37 1.7 35 65 -4.3 24.3
23:20 1030 30.42 859 25.37 1.5 34.7 66 -4.2 24.5
23:25 1030 30.42 859 25.37 1.4 34.6 66 -4.3 24.3
23:30 1030 30.42 859 25.37 1.5 34.7 66 -4.1 24.6
23:35 1030 30.42 859 25.37 1.5 34.7 66 -4.1 24.7
23:40 1030 30.42 859 25.37 1.5 34.6 66 -4.1 24.6
23:45 1030 30.42 859 25.37 1.4 34.6 66 -4.3 24.3
23:50 1030 30.42 859 25.37 1.4 34.6 66 -4.3 24.3
23:55 1030 30.42 859 25.37 1.3 34.3 66 -4.4 24.1
24:00 1030 30.42 859 25.37 1.2 34.2 66 -4.5 23.9